Time;durP1;ratioP1;P1;durP2;ratioP2;P2;SDS_P1;SDS_P2;PMS_P1;PMS_P2;Temp;Humidity;BMP_temperature;BMP_pressure;BME280_temperature;BME280_humidity;BME280_pressure;Samples;Min_cycle;Max_cycle;Signal;HPM_P1;HPM_P2
2021/03/27 00:00:59;;;;;;;;;62.71;49.00;;;;;14.60;36.92;99121.06;5635660;27;6554314;-61
2021/03/27 00:04:14;;;;;;;;;71.00;53.38;;;;;14.57;37.19;99128.84;5635197;28;6589756;-61
2021/03/27 00:07:24;;;;;;;;;59.86;47.57;;;;;14.44;37.31;99116.38;5658499;28;6550135;-61
2021/03/27 00:10:36;;;;;;;;;62.43;48.43;;;;;14.41;37.60;99116.88;5655958;28;6584517;-61
2021/03/27 00:13:59;;;;;;;;;67.09;52.00;;;;;14.30;37.59;99113.09;5658374;27;6587677;-61
2021/03/27 00:17:11;;;;;;;;;65.71;51.71;;;;;13.96;37.82;99078.75;5662192;28;6569957;-61
2021/03/27 00:20:23;;;;;;;;;65.43;51.29;;;;;13.91;37.89;99077.81;5635077;28;6588691;-61
2021/03/27 00:23:34;;;;;;;;;67.13;52.00;;;;;14.08;38.00;99111.25;5663280;27;6616840;-61
2021/03/27 00:26:43;;;;;;;;;79.00;68.75;;;;;14.01;38.34;99116.00;5633762;28;7363617;-61
2021/03/27 00:29:52;;;;;;;;;73.00;59.00;;;;;14.00;38.30;99106.19;5641473;28;5071241;-61
2021/03/27 00:33:03;;;;;;;;;75.63;59.25;;;;;14.03;38.45;99111.13;5654518;28;6623045;-61
2021/03/27 00:36:15;;;;;;;;;68.00;52.00;;;;;13.96;38.36;99100.44;5648220;28;7351174;-61
2021/03/27 00:39:30;;;;;;;;;69.42;53.00;;;;;14.07;38.47;99106.91;5655890;28;7357401;-61
2021/03/27 00:42:42;;;;;;;;;65.73;50.00;;;;;14.12;38.42;99107.81;5656572;28;7358421;-61
2021/03/27 00:45:55;;;;;;;;;66.13;51.25;;;;;14.10;38.42;99109.13;5654692;28;6587630;-61
2021/03/27 00:49:09;;;;;;;;;64.00;50.00;;;;;14.03;38.65;99111.97;5666317;28;6589757;-61
2021/03/27 00:52:17;;;;;;;;;64.00;50.00;;;;;13.91;38.76;99110.34;5633648;27;6587654;-61
2021/03/27 00:55:27;;;;;;;;;62.29;48.00;;;;;13.60;38.96;99093.41;5643067;27;6577742;-61
2021/03/27 00:58:40;;;;;;;;;67.14;50.00;;;;;13.68;38.99;99108.50;5634024;28;6598874;-61
2021/03/27 01:01:48;;;;;;;;;64.88;50.00;;;;;13.65;39.25;99107.06;5634253;28;7311582;-61
2021/03/27 01:05:25;;;;;;;;;65.00;51.00;;;;;13.55;39.22;99089.75;5617264;27;6558480;-61
2021/03/27 01:08:40;;;;;;;;;69.00;52.00;;;;;13.44;39.50;99099.50;5634229;27;6598061;-61
2021/03/27 01:12:16;;;;;;;;;71.50;55.13;;;;;13.33;39.90;99094.94;5638522;28;6610542;-61
2021/03/27 01:15:25;;;;;;;;;71.50;54.50;;;;;13.18;40.16;99098.09;5633332;27;6603351;-61
2021/03/27 01:18:48;;;;;;;;;73.29;59.00;;;;;13.00;40.69;99092.72;5649065;28;6609497;-61
2021/03/27 01:21:59;;;;;;;;;67.86;53.00;;;;;13.00;40.55;99088.13;5656270;27;6578290;-60
2021/03/27 01:25:07;;;;;;;;;69.86;53.00;;;;;12.97;40.41;99085.91;5650056;28;5826339;-61
2021/03/27 01:28:26;;;;;;;;;70.45;54.18;;;;;13.03;40.39;99086.84;5657187;28;7360552;-61
2021/03/27 01:31:40;;;;;;;;;68.25;52.63;;;;;13.11;40.37;99078.41;5630872;27;6604299;-61
2021/03/27 01:34:55;;;;;;;;;68.13;52.38;;;;;13.06;40.12;99058.47;5661458;27;3272882;-60
2021/03/27 01:38:10;;;;;;;;;70.71;53.14;;;;;13.20;40.25;99076.19;5627158;28;6600142;-61
2021/03/27 01:41:38;;;;;;;;;70.00;52.71;;;;;13.20;40.08;99073.47;5667753;27;6585635;-61
2021/03/27 01:45:00;;;;;;;;;67.00;52.00;;;;;13.16;40.05;99072.31;5666838;28;6585695;-61
2021/03/27 01:48:17;;;;;;;;;67.29;52.00;;;;;13.17;40.46;99068.53;5653230;28;6560592;-60
2021/03/27 01:51:49;;;;;;;;;67.63;53.88;;;;;13.19;40.21;99064.56;5665243;28;7323056;-61
2021/03/27 01:55:14;;;;;;;;;70.00;53.63;;;;;13.11;40.24;99059.47;5664267;27;7358492;-61
2021/03/27 01:58:28;;;;;;;;;69.38;52.00;;;;;13.00;40.10;99066.47;5645836;27;7328245;-60
2021/03/27 02:01:37;;;;;;;;;72.57;54.00;;;;;12.92;40.35;99068.69;5651791;27;6614696;-61
2021/03/27 02:04:52;;;;;;;;;69.90;52.60;;;;;12.85;40.59;99068.78;5657237;28;6589689;-61
2021/03/27 02:08:13;;;;;;;;;67.82;52.55;;;;;12.85;40.56;99063.38;5656601;28;7355886;-61
2021/03/27 02:11:31;;;;;;;;;67.14;52.00;;;;;12.90;40.55;99068.13;5655041;28;6591852;-61
2021/03/27 02:14:48;;;;;;;;;69.00;52.08;;;;;12.91;40.54;99076.00;5646470;28;6610553;-61
2021/03/27 02:18:03;;;;;;;;;68.00;53.00;;;;;12.73;40.60;99056.31;5663124;28;6596022;-60
2021/03/27 02:21:38;;;;;;;;;70.57;53.00;;;;;12.80;40.78;99067.88;5654473;28;6590755;-61
2021/03/27 02:24:59;;;;;;;;;68.00;53.00;;;;;12.76;40.63;99062.06;5652487;27;6566840;-60
2021/03/27 02:28:18;;;;;;;;;68.63;53.00;;;;;12.67;40.94;99065.34;5656673;27;7315762;-61
2021/03/27 02:31:32;;;;;;;;;68.29;52.86;;;;;12.67;40.75;99060.75;5649188;27;6595938;-61
2021/03/27 02:34:44;;;;;;;;;68.29;52.14;;;;;12.63;40.82;99059.56;5648736;27;6604343;-60
2021/03/27 02:38:00;;;;;;;;;68.43;52.00;;;;;12.41;41.07;99032.22;5648994;28;6604281;-61
2021/03/27 02:41:25;;;;;;;;;70.29;52.29;;;;;12.44;41.42;99056.09;5635056;27;6623077;-61
2021/03/27 02:44:35;;;;;;;;;69.00;52.43;;;;;12.40;41.06;99046.81;5632658;28;6608467;-61
2021/03/27 02:47:58;;;;;;;;;70.38;52.63;;;;;12.33;41.44;99056.06;5665869;28;6589825;-60
2021/03/27 02:51:10;;;;;;;;;71.00;55.25;;;;;12.28;41.68;99051.34;5632590;28;6608498;-61
2021/03/27 02:54:24;;;;;;;;;68.63;53.00;;;;;12.30;41.45;99051.13;5638949;27;7335509;-61
2021/03/27 02:57:37;;;;;;;;;67.43;53.00;;;;;12.27;41.58;99046.16;5631846;27;5831457;-61
2021/03/27 03:00:56;;;;;;;;;70.00;53.71;;;;;12.34;41.71;99052.31;5648784;28;6601147;-60
2021/03/27 03:04:13;;;;;;;;;72.45;55.82;;;;;12.36;41.46;99052.91;5638032;28;7358440;-61
2021/03/27 03:07:27;;;;;;;;;72.25;52.50;;;;;12.44;41.28;99048.00;5631357;27;7351161;-61
2021/03/27 03:10:41;;;;;;;;;70.29;53.00;;;;;12.41;41.47;99045.72;5669728;28;6606415;-61
2021/03/27 03:13:56;;;;;;;;;72.00;55.00;;;;;12.37;41.39;99041.00;5658808;28;6618906;-61
2021/03/27 03:17:13;;;;;;;;;73.00;53.50;;;;;12.33;41.50;99037.13;5634360;28;6594932;-61
2021/03/27 03:20:25;;;;;;;;;72.71;57.00;;;;;11.83;41.37;98933.88;5635854;28;6593908;-60
2021/03/27 03:23:36;;;;;;;;;72.75;55.63;;;;;12.41;41.42;99043.03;5633925;27;6611727;-61
2021/03/27 03:27:00;;;;;;;;;72.67;57.00;;;;;12.36;41.62;99024.00;5651536;27;4677286;-61
2021/03/27 03:30:24;;;;;;;;;72.38;55.50;;;;;12.32;41.32;99030.06;5658010;27;7359574;-61
2021/03/27 03:34:02;;;;;;;;;72.71;56.86;;;;;12.31;41.37;99037.38;5634507;28;6583496;-61
2021/03/27 03:37:16;;;;;;;;;76.25;59.00;;;;;12.27;41.33;99027.22;5639541;27;6610514;-61
2021/03/27 03:40:44;;;;;;;;;77.00;61.00;;;;;12.28;41.58;99032.41;5651453;28;6616748;-61
2021/03/27 03:43:58;;;;;;;;;75.14;62.86;;;;;12.26;41.64;99029.13;5668145;28;6593900;-60
2021/03/27 03:47:15;;;;;;;;;78.38;64.38;;;;;12.26;41.64;99025.59;5634095;28;6636686;-61
2021/03/27 03:50:46;;;;;;;;;78.25;66.00;;;;;12.27;41.65;99019.13;5649303;28;6638751;-61
2021/03/27 03:54:17;;;;;;;;;77.00;64.44;;;;;12.28;41.67;99015.38;5659323;27;7374122;-61
2021/03/27 03:57:43;;;;;;;;;79.71;68.29;;;;;12.29;41.51;99017.00;5632579;28;6611617;-61
2021/03/27 04:00:57;;;;;;;;;76.33;65.00;;;;;12.28;41.48;99013.50;5642026;28;4887700;-60
2021/03/27 04:04:07;;;;;;;;;78.29;65.00;;;;;12.04;41.46;98982.84;5634982;28;6582463;-61
2021/03/27 04:07:19;;;;;;;;;79.00;69.63;;;;;12.19;41.46;99014.03;5631413;28;7371978;-61
2021/03/27 04:10:30;;;;;;;;;80.00;67.88;;;;;11.90;41.49;98967.03;5653704;28;6588716;-61
2021/03/27 04:13:40;;;;;;;;;78.88;65.75;;;;;12.04;41.81;99000.94;5633727;28;7362627;-61
2021/03/27 04:16:49;;;;;;;;;80.57;69.29;;;;;11.89;41.81;98993.22;5631965;28;6622433;-61
2021/03/27 04:20:08;;;;;;;;;76.88;65.00;;;;;11.97;41.92;99006.41;5655134;28;7381395;-61
2021/03/27 04:23:23;;;;;;;;;79.88;68.50;;;;;11.93;41.94;99002.53;5656427;27;7354313;-61
2021/03/27 04:26:43;;;;;;;;;78.45;66.45;;;;;11.94;41.99;99004.19;5657817;27;7372976;-61
2021/03/27 04:30:05;;;;;;;;;77.91;65.09;;;;;11.93;41.75;99005.22;5656893;27;7379214;-61
2021/03/27 04:33:19;;;;;;;;;77.25;66.00;;;;;11.88;41.85;99015.88;5647789;27;7371986;-61
2021/03/27 04:36:31;;;;;;;;;78.13;67.63;;;;;11.59;42.07;98965.31;5634788;28;6613762;-61
2021/03/27 04:39:41;;;;;;;;;81.00;68.86;;;;;11.85;41.99;99010.94;5651125;28;6619912;-61
2021/03/27 04:42:55;;;;;;;;;78.14;67.43;;;;;11.86;42.01;99011.78;5653692;28;6612997;-61
2021/03/27 04:46:11;;;;;;;;;77.86;65.86;;;;;11.82;41.95;99008.72;5642941;28;6607402;-61
2021/03/27 04:49:27;;;;;;;;;78.00;65.29;;;;;11.86;41.86;99018.00;5657071;28;6598062;-61
2021/03/27 04:52:37;;;;;;;;;78.25;63.50;;;;;11.92;42.00;99010.88;5644699;28;6606703;-61
2021/03/27 04:55:51;;;;;;;;;79.71;67.86;;;;;11.93;42.00;99017.91;5630381;28;6612637;-61
2021/03/27 04:59:04;;;;;;;;;78.33;67.33;;;;;11.95;42.15;99019.34;5642599;27;5253325;-61
2021/03/27 05:02:13;;;;;;;;;79.25;65.75;;;;;12.01;41.95;99013.03;5631969;27;7368880;-61
2021/03/27 05:05:43;;;;;;;;;78.88;68.50;;;;;12.08;41.96;99012.94;5657998;28;7367843;-61
2021/03/27 05:09:01;;;;;;;;;75.82;62.18;;;;;12.17;41.92;99011.56;5657886;28;7360874;-61
2021/03/27 05:12:13;;;;;;;;;82.29;68.57;;;;;12.25;41.85;99007.72;5627952;28;6604285;-61
2021/03/27 05:15:33;;;;;;;;;75.63;63.00;;;;;12.32;41.82;99006.56;5642863;28;7365101;-60
2021/03/27 05:18:49;;;;;;;;;76.88;63.00;;;;;12.41;41.69;99015.19;5665020;28;7375107;-61
2021/03/27 05:22:05;;;;;;;;;76.43;63.00;;;;;12.48;41.63;99011.31;5650064;27;6614711;-61
2021/03/27 05:25:29;;;;;;;;;82.38;70.25;;;;;12.57;41.62;99006.41;5655248;28;7376500;-61
2021/03/27 05:28:49;;;;;;;;;78.63;66.38;;;;;12.60;41.27;98992.44;5632961;28;6611684;-61
2021/03/27 05:32:06;;;;;;;;;75.33;61.00;;;;;12.85;41.38;98998.44;5640498;28;4537805;-61
2021/03/27 05:35:26;;;;;;;;;76.75;61.25;;;;;12.87;41.27;98999.06;5656723;28;6640219;-61
2021/03/27 05:38:39;;;;;;;;;78.00;60.33;;;;;13.07;41.19;99001.41;5641399;27;4283094;-61
2021/03/27 05:42:01;;;;;;;;;78.13;61.25;;;;;13.23;41.06;99000.75;5630334;28;7377238;-61
2021/03/27 05:45:47;;;;;;;;;74.58;58.83;;;;;13.45;40.58;99015.31;5652759;27;6607500;-61
2021/03/27 05:49:36;;;;;;;;;75.00;58.00;;;;;13.65;40.29;99011.41;5641393;28;5030461;-61
2021/03/27 05:53:13;;;;;;;;;70.71;56.71;;;;;13.87;39.77;99005.13;5647900;27;6585566;-61
2021/03/27 05:57:01;;;;;;;;;72.55;60.45;;;;;14.11;39.73;99013.19;5650287;27;6619386;-61
2021/03/27 06:00:28;;;;;;;;;73.29;57.29;;;;;14.35;39.52;99005.78;5630496;28;6613698;-61
2021/03/27 06:04:12;;;;;;;;;75.25;59.00;;;;;14.65;39.28;99001.75;5633755;28;7377169;-61
2021/03/27 06:07:57;;;;;;;;;75.00;61.00;;;;;14.87;38.95;98982.00;5640882;28;5314829;-61
2021/03/27 06:11:35;;;;;;;;;74.83;60.25;;;;;15.32;38.91;98999.00;5633042;28;7344881;-61
2021/03/27 06:15:14;;;;;;;;;74.63;59.00;;;;;15.76;38.15;99008.06;5635596;28;6611042;-61
2021/03/27 06:18:46;;;;;;;;;71.71;57.43;;;;;16.12;37.29;99006.63;5640945;28;6599056;-61
2021/03/27 06:22:17;;;;;;;;;70.71;56.43;;;;;16.43;36.82;99005.03;5650923;27;6600110;-61
2021/03/27 06:25:51;;;;;;;;;72.29;56.71;;;;;16.65;36.58;99005.03;5655051;27;6591823;-61
2021/03/27 06:29:33;;;;;;;;;70.42;55.58;;;;;16.98;36.24;98998.50;5664240;27;7352163;-61
2021/03/27 06:33:22;;;;;;;;;70.00;53.00;;;;;17.33;35.91;98993.31;5631400;28;6569965;-61
2021/03/27 06:36:50;;;;;;;;;71.88;55.63;;;;;17.42;34.20;98980.00;5663444;28;7358969;-61
2021/03/27 06:40:10;;;;;;;;;70.38;53.00;;;;;17.68;34.59;98992.72;5620777;28;6600138;-61
2021/03/27 06:43:24;;;;;;;;;70.29;56.14;;;;;17.70;34.30;98990.53;5633260;28;6588029;-61
2021/03/27 06:46:56;;;;;;;;;70.50;55.50;;;;;17.72;34.41;98988.38;5642629;28;6610513;-61
2021/03/27 06:50:33;;;;;;;;;71.75;57.00;;;;;17.91;33.99;98980.53;5649601;28;6563676;-61
2021/03/27 06:54:03;;;;;;;;;71.63;54.38;;;;;18.21;33.99;98990.75;5654859;27;6610573;-61
2021/03/27 06:57:27;;;;;;;;;72.29;57.29;;;;;18.38;33.82;98996.78;5659802;27;6586557;-61
2021/03/27 07:00:48;;;;;;;;;70.00;55.00;;;;;18.54;33.09;99001.22;5667702;28;6582517;-61
2021/03/27 07:04:30;;;;;;;;;72.00;55.71;;;;;18.88;33.23;98990.59;5651158;27;6600113;-61
2021/03/27 07:07:57;;;;;;;;;71.43;57.43;;;;;19.32;33.06;99002.59;5613303;27;6569933;-61
2021/03/27 07:11:31;;;;;;;;;70.33;54.00;;;;;19.69;32.40;99004.19;5630074;28;3967940;-61
2021/03/27 07:14:58;;;;;;;;;72.38;57.63;;;;;19.88;31.25;98999.75;5635860;28;7358429;-62
2021/03/27 07:18:52;;;;;;;;;70.83;53.92;;;;;19.80;30.89;99001.13;5659393;27;6605428;-62
2021/03/27 07:22:33;;;;;;;;;70.43;55.43;;;;;20.11;31.05;99007.31;5594725;27;6600168;-62
2021/03/27 07:25:51;;;;;;;;;72.38;56.00;;;;;20.61;30.63;98975.28;5637337;27;7364730;-62
2021/03/27 07:29:31;;;;;;;;;72.25;56.08;;;;;21.26;29.63;98995.09;5658313;27;7364667;-62
2021/03/27 07:33:15;;;;;;;;;70.43;54.57;;;;;21.92;29.10;99000.66;5656335;28;6594949;-61
2021/03/27 07:37:02;;;;;;;;;69.25;53.25;;;;;22.52;27.87;98993.59;5657942;28;7356401;-61
2021/03/27 07:40:38;;;;;;;;;69.64;56.73;;;;;23.12;27.69;99000.06;5607861;28;6567819;-61
2021/03/27 07:44:19;;;;;;;;;66.50;51.88;;;;;23.80;25.98;98993.09;5659596;28;6562785;-61
2021/03/27 07:47:57;;;;;;;;;60.33;46.17;;;;;24.40;24.15;98993.75;5684693;27;5803297;-61
2021/03/27 07:51:16;;;;;;;;;47.00;35.43;;;;;24.78;21.84;98988.75;5658715;28;6548396;-61
2021/03/27 07:54:48;;;;;;;;;29.63;26.63;;;;;25.02;21.60;98990.09;5636644;28;6519972;-61
2021/03/27 07:58:12;;;;;;;;;29.38;26.00;;;;;25.36;21.53;98992.25;5659478;28;6535889;-61
2021/03/27 08:01:44;;;;;;;;;27.29;24.29;;;;;25.30;20.38;98992.72;5637910;28;6535538;-61
2021/03/27 08:05:20;;;;;;;;;30.43;25.00;;;;;25.41;20.60;98964.53;5669045;28;6529719;-61
2021/03/27 08:09:05;;;;;;;;;28.71;25.71;;;;;25.60;20.05;98989.19;5667594;28;6516831;-61
2021/03/27 08:12:48;;;;;;;;;27.83;25.83;;;;;25.80;20.16;98982.31;5667277;28;5787659;-61
2021/03/27 08:16:32;;;;;;;;;25.71;24.00;;;;;25.99;20.10;98979.28;5636929;27;5793973;-61
2021/03/27 08:20:02;;;;;;;;;28.71;24.00;;;;;25.98;19.65;98983.97;5659480;28;5812806;-61
2021/03/27 08:23:35;;;;;;;;;30.29;25.43;;;;;25.89;19.70;98980.38;5668585;28;6561629;-61
2021/03/27 08:27:05;;;;;;;;;28.00;23.29;;;;;26.12;19.87;98979.13;5667557;28;6541829;-61
2021/03/27 08:30:42;;;;;;;;;26.29;25.00;;;;;26.49;19.19;98976.94;5667543;28;6510944;-61
2021/03/27 08:34:25;;;;;;;;;23.00;22.00;;;;;27.00;19.59;98978.94;5645079;28;5777242;-61
2021/03/27 08:37:49;;;;;;;;;23.71;22.00;;;;;27.36;18.48;98968.28;5657060;28;6512672;-61
2021/03/27 08:41:26;;;;;;;;;24.00;23.00;;;;;27.48;18.16;98965.63;5662267;28;5782747;-62
2021/03/27 08:44:50;;;;;;;;;29.25;25.63;;;;;27.17;18.24;98958.72;5585035;27;7291820;-62
2021/03/27 08:48:26;;;;;;;;;23.00;21.00;;;;;27.45;18.04;98971.03;5653900;28;3919007;-61
2021/03/27 08:51:43;;;;;;;;;26.86;23.86;;;;;27.46;18.37;98967.94;5667368;28;5773178;-62
2021/03/27 08:55:13;;;;;;;;;27.75;24.25;;;;;27.51;17.93;98973.28;5657304;28;7286600;-61
2021/03/27 08:58:47;;;;;;;;;26.00;24.29;;;;;27.48;18.01;98970.34;5637786;28;6513682;-61
2021/03/27 09:02:18;;;;;;;;;26.00;23.71;;;;;27.41;18.29;98953.44;5667830;28;6491844;-62
2021/03/27 09:05:37;;;;;;;;;23.71;22.43;;;;;27.40;18.50;98960.13;5666837;28;5788787;-62
2021/03/27 09:08:53;;;;;;;;;22.83;21.00;;;;;27.88;17.90;98957.03;5667241;28;5785608;-62
2021/03/27 09:12:15;;;;;;;;;22.43;19.57;;;;;28.18;17.66;98955.91;5668836;28;6489070;-62
2021/03/27 09:15:44;;;;;;;;;24.71;22.86;;;;;28.56;17.94;98950.25;5655760;28;5781479;-62
2021/03/27 09:19:14;;;;;;;;;24.20;22.80;;;;;28.58;17.52;98949.91;5659389;27;6529280;-62
2021/03/27 09:22:48;;;;;;;;;25.00;24.29;;;;;28.83;17.69;98954.47;5653904;27;6516787;-62
2021/03/27 09:26:26;;;;;;;;;24.50;22.00;;;;;28.79;17.26;98939.63;5614397;28;7257414;-62
2021/03/27 09:30:06;;;;;;;;;22.88;20.88;;;;;29.09;16.73;98945.88;5614166;28;7243929;-62
2021/03/27 09:33:23;;;;;;;;;24.00;22.00;;;;;29.51;16.96;98946.59;5629808;28;4425236;-62
2021/03/27 09:36:41;;;;;;;;;21.00;20.00;;;;;29.75;16.38;98926.34;5653685;28;6491876;-62
2021/03/27 09:39:56;;;;;;;;;21.14;19.57;;;;;30.16;16.40;98931.66;5659130;27;5742892;-61
2021/03/27 09:43:36;;;;;;;;;21.57;18.57;;;;;30.63;15.32;98920.00;5667490;28;6492870;-61
2021/03/27 09:46:54;;;;;;;;;21.29;17.43;;;;;30.92;14.59;98933.56;5660304;28;6513702;-61
2021/03/27 09:50:14;;;;;;;;;20.00;18.00;;;;;31.27;14.96;98919.84;5658199;27;3910774;-62
2021/03/27 09:53:40;;;;;;;;;15.00;13.14;;;;;31.36;14.39;98918.50;5644790;28;5691856;-62
2021/03/27 09:57:04;;;;;;;;;14.50;13.50;;;;;31.24;13.91;98876.78;5666897;27;4968953;-62
2021/03/27 10:00:16;;;;;;;;;16.17;15.17;;;;;31.55;14.10;98928.94;5670494;28;5725595;-62
2021/03/27 10:03:34;;;;;;;;;18.29;17.29;;;;;31.55;14.33;98926.13;5670917;28;5741893;-62
2021/03/27 10:06:59;;;;;;;;;15.00;14.67;;;;;31.55;13.79;98916.97;5667517;28;5698106;-62
2021/03/27 10:10:41;;;;;;;;;16.00;15.00;;;;;31.61;13.83;98919.16;5667139;28;5722048;-62
2021/03/27 10:13:58;;;;;;;;;16.83;14.33;;;;;31.91;14.02;98918.69;5667299;28;5733470;-62
2021/03/27 10:17:16;;;;;;;;;16.29;14.71;;;;;31.97;13.85;98914.44;5666017;28;6479341;-62
2021/03/27 10:20:30;;;;;;;;;14.00;13.17;;;;;31.88;13.87;98914.63;5657832;28;5702273;-62
2021/03/27 10:23:40;;;;;;;;;15.00;14.00;;;;;32.09;13.78;98912.34;5654721;28;4285074;-62
2021/03/27 10:26:50;;;;;;;;;15.67;14.00;;;;;32.09;13.45;98906.78;5652376;28;4092952;-62
2021/03/27 10:30:02;;;;;;;;;15.00;14.00;;;;;32.20;13.63;98916.22;5653919;28;4573136;-62
2021/03/27 10:33:17;;;;;;;;;16.60;15.00;;;;;32.40;13.63;98921.84;5655881;28;6491872;-62
2021/03/27 10:36:35;;;;;;;;;13.17;13.00;;;;;32.17;13.14;98921.72;5665054;28;5698079;-62
2021/03/27 10:39:57;;;;;;;;;12.00;11.50;;;;;31.94;13.26;98917.94;5669552;27;5684529;-62
2021/03/27 10:43:26;;;;;;;;;13.83;12.00;;;;;31.91;13.55;98913.13;5669566;27;4973207;-62
2021/03/27 10:46:39;;;;;;;;;14.83;13.00;;;;;31.40;13.87;98922.19;5656151;27;5708525;-62
2021/03/27 10:49:54;;;;;;;;;16.57;12.29;;;;;30.90;14.51;98922.78;5642603;28;5725293;-62
2021/03/27 10:53:20;;;;;;;;;15.17;14.17;;;;;30.18;14.74;98911.84;5660159;28;5698094;-62
2021/03/27 10:56:56;;;;;;;;;15.33;14.33;;;;;29.48;14.83;98919.47;5660114;28;5727208;-62
2021/03/27 11:00:21;;;;;;;;;14.50;13.00;;;;;29.10;15.24;98919.72;5665890;28;5709155;-62
2021/03/27 11:03:48;;;;;;;;;14.00;13.00;;;;;28.95;15.45;98900.94;5664924;28;5698098;-62
2021/03/27 11:07:19;;;;;;;;;14.17;13.00;;;;;28.95;15.71;98912.88;5643404;27;5708522;-62
2021/03/27 11:10:53;;;;;;;;;14.00;13.00;;;;;28.93;16.13;98915.16;5656549;28;5704347;-62
2021/03/27 11:14:42;;;;;;;;;13.00;12.00;;;;;28.76;15.87;98909.78;5670741;27;5698173;-62
2021/03/27 11:18:22;;;;;;;;;14.50;13.33;;;;;28.34;16.07;98898.72;5573618;28;5710609;-62
2021/03/27 11:21:51;;;;;;;;;14.33;13.50;;;;;27.83;16.68;98899.84;5593613;28;5710625;-61
2021/03/27 11:25:17;;;;;;;;;10.00;9.00;;;;;27.52;16.72;98897.38;5596040;28;4095989;-62
2021/03/27 11:28:26;;;;;;;;;11.00;11.00;;;;;27.21;16.74;98898.78;5594205;28;4945027;-61
2021/03/27 11:31:42;;;;;;;;;12.67;11.67;;;;;26.77;17.39;98908.31;5601220;28;5692863;-61
2021/03/27 11:34:58;;;;;;;;;13.83;13.00;;;;;26.37;17.59;98891.09;5598876;28;5694981;-61
2021/03/27 11:38:20;;;;;;;;;11.00;10.80;;;;;26.29;17.81;98901.03;5598932;28;4949152;-61
2021/03/27 11:41:35;;;;;;;;;12.83;11.33;;;;;26.43;17.79;98865.72;5599897;28;5671009;-61
2021/03/27 11:44:57;;;;;;;;;13.00;11.00;;;;;26.55;17.58;98903.75;5585763;28;5660585;-61
2021/03/27 11:48:09;;;;;;;;;11.67;10.67;;;;;26.50;17.61;98910.28;5601392;28;5683511;-61
2021/03/27 11:51:23;;;;;;;;;12.00;12.00;;;;;26.57;17.47;98899.53;5604879;28;5698089;-61
2021/03/27 11:54:47;;;;;;;;;14.00;13.00;;;;;26.34;17.56;98909.13;5674860;27;5668944;-61
2021/03/27 11:58:00;;;;;;;;;12.67;12.50;;;;;26.43;17.80;98903.63;5680758;27;5681421;-62
2021/03/27 12:01:31;;;;;;;;;14.83;13.00;;;;;26.48;17.82;98901.50;5667761;28;5700182;-61
2021/03/27 12:05:12;;;;;;;;;12.00;12.00;;;;;26.78;17.43;98899.66;5667653;28;5691789;-61
2021/03/27 12:08:32;;;;;;;;;16.00;13.40;;;;;26.98;17.69;98896.25;5663630;27;4478364;-62
2021/03/27 12:12:24;;;;;;;;;15.00;13.00;;;;;27.49;17.09;98887.00;5669457;28;5708519;-61
2021/03/27 12:15:33;;;;;;;;;15.33;14.00;;;;;28.04;16.86;98902.66;5628946;27;4194026;-61
2021/03/27 12:19:11;;;;;;;;;15.00;14.17;;;;;28.00;16.26;98924.66;5662179;28;4984641;-62
2021/03/27 12:22:26;;;;;;;;;16.11;14.44;;;;;27.48;16.41;98899.16;5646241;27;5742220;-61
2021/03/27 12:25:46;;;;;;;;;15.00;13.00;;;;;27.43;16.47;98902.13;5667059;28;5706434;-61
2021/03/27 12:28:59;;;;;;;;;14.33;13.00;;;;;27.12;16.62;98899.63;5663893;28;4980469;-61
2021/03/27 12:32:27;;;;;;;;;13.67;13.17;;;;;26.91;17.01;98909.78;5668005;27;5693932;-61
2021/03/27 12:35:38;;;;;;;;;13.00;13.00;;;;;26.69;17.39;98898.88;5665723;28;5702280;-61
2021/03/27 12:39:06;;;;;;;;;14.00;11.17;;;;;26.39;17.43;98902.66;5650102;28;5685583;-61
2021/03/27 12:42:17;;;;;;;;;14.00;13.00;;;;;26.32;17.51;98910.59;5667801;28;5708534;-61
2021/03/27 12:45:29;;;;;;;;;16.14;13.57;;;;;26.11;17.69;98918.66;5665897;27;5729445;-61
2021/03/27 12:48:45;;;;;;;;;13.67;13.00;;;;;25.98;18.09;98909.38;5666558;28;5702260;-61
2021/03/27 12:52:08;;;;;;;;;16.00;15.00;;;;;25.81;18.26;98920.38;5663998;28;5748117;-61
2021/03/27 12:55:35;;;;;;;;;16.33;15.00;;;;;25.66;18.46;98912.53;5657194;27;5740801;-62
2021/03/27 12:58:48;;;;;;;;;11.40;11.00;;;;;25.59;18.59;98912.22;5654594;28;4941878;-61
2021/03/27 13:02:10;;;;;;;;;14.83;12.83;;;;;25.61;18.62;98919.03;5663595;28;4975226;-61
2021/03/27 13:05:19;;;;;;;;;15.33;14.00;;;;;25.57;18.82;98922.75;5652801;28;4489377;-61
2021/03/27 13:08:36;;;;;;;;;14.14;13.14;;;;;25.62;18.78;98925.34;5666750;28;5714849;-61
2021/03/27 13:11:49;;;;;;;;;14.57;13.00;;;;;25.42;18.72;98924.75;5667289;28;5708581;-61
2021/03/27 13:15:17;;;;;;;;;14.67;14.00;;;;;25.33;19.00;98921.16;5652694;27;4201278;-61
2021/03/27 13:18:44;;;;;;;;;12.00;12.00;;;;;25.38;18.46;98929.31;5664505;28;5693956;-61
2021/03/27 13:22:14;;;;;;;;;12.33;11.33;;;;;25.36;18.55;98936.28;5664431;28;5689765;-61
2021/03/27 13:25:23;;;;;;;;;14.00;13.00;;;;;25.38;18.19;98943.09;5669596;28;5692867;-61
2021/03/27 13:28:37;;;;;;;;;13.43;12.29;;;;;25.17;18.05;98936.47;5666928;28;5690823;-61
2021/03/27 13:31:51;;;;;;;;;13.67;12.83;;;;;25.10;18.70;98946.34;5667617;28;5698121;-61
2021/03/27 13:35:04;;;;;;;;;16.00;14.71;;;;;25.00;18.61;98953.75;5661400;27;6466774;-61
2021/03/27 13:38:13;;;;;;;;;14.00;13.00;;;;;24.80;18.70;98970.78;5667519;28;5702615;-61
2021/03/27 13:42:12;;;;;;;;;15.50;14.00;;;;;24.64;18.86;98943.88;5667819;27;5718368;-61
2021/03/27 13:45:27;;;;;;;;;16.29;15.57;;;;;24.66;19.04;98950.72;5600230;28;6496018;-61
2021/03/27 13:48:46;;;;;;;;;15.71;14.00;;;;;24.43;19.19;98940.81;5596716;28;6485575;-61
2021/03/27 13:51:56;;;;;;;;;15.83;15.00;;;;;24.54;19.16;98964.22;5569976;28;5706456;-61
2021/03/27 13:55:19;;;;;;;;;16.00;14.00;;;;;24.46;19.57;98952.00;5584799;28;4398230;-61
2021/03/27 13:58:25;;;;;;;;;18.00;16.00;;;;;24.33;19.55;98954.81;5606523;28;4375257;-60
2021/03/27 14:01:38;;;;;;;;;13.67;13.00;;;;;24.24;20.15;98964.94;5614481;28;4971020;-61
2021/03/27 14:04:49;;;;;;;;;14.67;14.00;;;;;24.23;20.26;98974.31;5608021;28;5692863;-61
2021/03/27 14:08:03;;;;;;;;;19.43;17.00;;;;;24.05;20.86;98976.84;5552442;28;6498154;-60
2021/03/27 14:11:21;;;;;;;;;18.00;17.00;;;;;23.96;21.11;98983.38;5587752;28;5719342;-61
2021/03/27 14:14:33;;;;;;;;;18.00;15.00;;;;;23.43;21.57;98989.34;5586405;28;6479689;-61
2021/03/27 14:17:49;;;;;;;;;20.00;16.29;;;;;23.37;21.89;98973.22;5584985;28;5758628;-61
2021/03/27 14:21:08;;;;;;;;;20.00;16.00;;;;;23.40;22.05;98978.16;5614076;28;6515102;-60
2021/03/27 14:25:07;;;;;;;;;19.86;18.71;;;;;23.50;22.11;98980.75;5657614;27;6475169;-61
2021/03/27 14:28:44;;;;;;;;;19.00;16.71;;;;;23.44;22.56;98985.47;5665087;27;6498065;-61
2021/03/27 14:31:58;;;;;;;;;18.00;16.00;;;;;23.25;22.71;98990.25;5666707;28;5755407;-61
2021/03/27 14:35:26;;;;;;;;;19.86;18.29;;;;;23.17;22.93;98988.97;5666963;28;5741241;-61
2021/03/27 14:39:04;;;;;;;;;22.00;20.00;;;;;23.45;23.21;98987.16;5655503;28;6504328;-61
2021/03/27 14:42:15;;;;;;;;;20.00;19.00;;;;;23.50;22.99;98994.50;5642386;28;3919730;-61
2021/03/27 14:45:34;;;;;;;;;20.71;19.71;;;;;23.58;23.06;99004.78;5654458;28;6493916;-61
2021/03/27 14:48:58;;;;;;;;;20.00;18.00;;;;;23.48;22.94;98997.53;5663796;28;5753356;-61
2021/03/27 14:52:14;;;;;;;;;21.86;19.00;;;;;23.48;23.25;99007.72;5668693;28;5748073;-60
2021/03/27 14:55:29;;;;;;;;;23.00;21.00;;;;;23.42;23.54;98995.16;5638713;28;4456526;-61
2021/03/27 14:58:42;;;;;;;;;18.50;16.67;;;;;23.43;23.34;99005.03;5643240;28;5766872;-61
2021/03/27 15:01:54;;;;;;;;;18.67;15.33;;;;;23.45;23.78;99000.09;5655565;28;5749099;-61
2021/03/27 15:05:12;;;;;;;;;19.00;17.33;;;;;23.51;23.61;99007.13;5658610;27;5720993;-60
2021/03/27 15:08:34;;;;;;;;;22.14;20.71;;;;;23.43;24.21;99011.38;5669946;28;6520974;-60